Alta, Wyoming
Current Conditions -  °F | °C
As of 8:56 PM on Wednesday 22 Oct 2014 (Local Time) from KDIJ Reporting Station
Clear Clear  
Wind Chill: 27°   Ceiling: Unl
Heat Index: 32°   Visibility: 10mi
Dew Point: 25°   Wind: 5mph
Humidity: 76%   Direction: 120°ESE
Pressure: 30.22"   Gusts: NA
Location:  43.77°N, 110.98°W
Report Text: KDIJ 230256Z AUTO 12004KT 10SM CLR 00/M04 A3022 RMK AO2 51006 T00001038 SLP227
Loading
Personal Weather Stations






























Interactive Weather Map
Tropical Storm Tracking
New forecast layout! Learn more

10-Day Weather Forecast

Advertisements
Track Severe Weather on mobile